Latest Weather Observations for Hindmarsh Island

IDS60801

Issued at 9:11 am CDT Saturday 10 December 2022 (issued every 10 minutes, with the page automatically refreshed every 10 minutes)

About weather observations | Map of weather stations | Latest weather observations for SA | Other Formats
Station Details ID: 023894 Name: HINDMARSH ISLAND AWS Lat: -35.52 Lon: 138.82 Height: 11.0 m
Data from the previous 72 hours. | See also: Recent months at Hindmarsh Island
Date/Time
CDT
Temp
°C
App
Temp
°C
Dew
Point
°C
Rel
Hum
%
Delta-T
°C
Wind Press
QNH
hPa
Press
MSL
hPa
Rain since
9am
mm
Dir  Spd
km/h
Gust
km/h
Spd
kts
Gust
kts
10/09:00am 21.8 16.6 7.2 39 7.5 NE 24 30 13 16 1010.9 1010.8 0.0
10/08:30am 21.1 15.0 6.6 39 7.4 NE 28 35 15 19 1010.7 1010.6 0.0
10/08:00am 19.3 14.2 7.7 47 5.9 NNE 24 32 13 17 1011.2 1011.1 0.0
10/07:30am 17.8 11.8 7.2 50 5.3 NNE 28 35 15 19 1010.8 1010.7 0.0
10/07:00am 16.4 9.5 6.5 52 4.8 NE 32 41 17 22 1010.7 1010.6 0.0
10/06:30am 15.8 9.3 6.5 54 4.5 NE 30 37 16 20 1010.7 1010.6 0.0
10/06:00am 15.5 9.6 5.7 52 4.7 NE 26 35 14 19 1010.9 1010.8 0.0
10/05:30am 14.9 9.0 6.0 55 4.3 NE 26 35 14 19 1011.0 1010.9 0.0
10/05:00am 15.2 9.3 5.7 53 4.5 NE 26 32 14 17 1011.0 1010.9 0.0
10/04:30am 15.4 9.3 5.0 50 4.9 NE 26 33 14 18 1010.9 1010.8 0.0
10/04:00am 14.3 9.4 6.9 61 3.6 NE 22 28 12 15 1011.2 1011.1 0.0
10/03:30am 13.6 9.4 8.2 70 2.7 NNE 20 24 11 13 1011.2 1011.1 0.0
10/03:00am 12.8 9.2 10.0 83 1.4 NNE 19 20 10 11 1011.3 1011.2 0.0
10/02:30am 12.9 10.3 10.6 86 1.2 N 15 17 8 9 1011.8 1011.7 0.0
10/02:00am 13.1 11.0 11.2 88 1.0 N 13 15 7 8 1011.9 1011.8 0.0
10/01:30am 13.4 12.0 10.9 85 1.3 NNE 9 11 5 6 1012.2 1012.1 0.0
10/01:00am 14.0 12.6 10.8 81 1.7 NNE 9 9 5 5 1012.6 1012.5 0.0
10/12:30am 14.6 13.8 11.2 80 1.8 NNE 6 7 3 4 1013.0 1013.0 0.0
10/12:00am 14.9 14.1 11.1 78 2.0 NNE 6 7 3 4 1013.2 1013.2 0.0
 
Date/Time
CDT
Temp
°C
App
Temp
°C
Dew
Point
°C
Rel
Hum
%
Delta-T
°C
Wind Press
QNH
hPa
Press
MSL
hPa
Rain since
9am
mm
Dir  Spd
km/h
Gust
km/h
Spd
kts
Gust
kts
09/11:30pm 14.9 13.6 11.1 78 2.0 NNE 9 11 5 6 1013.4 1013.4 0.0
09/11:00pm 14.8 12.9 10.6 76 2.2 NE 11 17 6 9 1013.6 1013.6 0.0
09/10:30pm 15.6 14.2 10.8 73 2.5 NNE 9 13 5 7 1013.8 1013.8 0.0
09/10:00pm 15.6 14.4 10.4 71 2.7 NNE 7 9 4 5 1013.7 1013.7 0.0
09/09:30pm 15.7 14.3 10.9 73 2.6 ENE 9 13 5 7 1013.3 1013.3 0.0
09/09:00pm 16.5 12.2 11.9 74 2.5 ESE 26 35 14 19 1013.1 1013.1 0.0
09/08:30pm 17.0 12.2 11.5 70 3.0 ESE 28 39 15 21 1013.0 1013.0 0.0
09/08:00pm 17.4 11.1 11.2 67 3.4 ESE 35 43 19 23 1012.9 1012.9 0.0
09/07:30pm 18.0 12.5 12.5 70 3.1 ESE 33 41 18 22 1012.8 1012.8 0.0
09/07:00pm 18.5 12.7 11.6 64 3.8 SE 33 39 18 21 1012.7 1012.7 0.0
09/06:30pm 19.0 13.5 11.8 63 4.0 SE 32 37 17 20 1012.6 1012.5 0.0
09/06:00pm 19.4 13.4 10.9 58 4.6 SE 33 37 18 20 1012.6 1012.5 0.0
09/05:30pm 19.7 14.1 11.5 59 4.5 SE 32 37 17 20 1012.8 1012.8 0.0
09/05:00pm 19.9 13.6 10.9 56 4.9 SE 35 41 19 22 1013.0 1013.0 0.0
09/04:30pm 20.2 14.2 10.9 55 5.1 SE 33 39 18 21 1013.2 1013.2 0.0
09/04:00pm 21.1 15.2 10.3 50 5.9 SE 32 39 17 21 1013.6 1013.6 0.0
09/03:30pm 23.7 18.6 6.0 32 9.0 E 22 30 12 16 1014.1 1014.1 0.0
09/03:00pm 23.2 18.2 6.5 34 8.6 E 22 35 12 19 1014.4 1014.4 0.0
09/02:30pm 22.3 17.2 6.1 35 8.2 E 22 30 12 16 1014.8 1014.8 0.0
09/02:00pm 21.9 17.2 6.2 36 7.9 ENE 20 28 11 15 1015.2 1015.2 0.0
09/01:30pm 22.1 17.5 6.3 36 8.0 E 20 30 11 16 1015.5 1015.5 0.0
09/01:00pm 20.8 15.6 5.6 37 7.5 ENE 22 30 12 16 1015.9 1015.9 0.0
09/12:30pm 19.8 14.3 5.8 40 6.9 NE 24 35 13 19 1016.3 1016.3 0.0
09/12:00pm 18.9 13.3 5.4 41 6.6 NE 24 43 13 23 1016.8 1016.8 0.0
09/11:30am 18.8 13.3 6.0 43 6.3 NE 24 35 13 19 1016.8 1016.8 0.0
09/11:00am 17.2 10.9 5.5 46 5.6 NE 28 37 15 20 1017.3 1017.3 0.0
09/10:30am 16.3 10.4 5.9 50 5.0 NNE 26 35 14 19 1017.2 1017.2 0.0
09/10:00am 14.5 8.5 5.3 54 4.3 NE 26 35 14 19 1017.7 1017.7 0.0
09/09:30am 13.0 7.0 5.2 59 3.6 NNE 26 33 14 18 1018.3 1018.3 0.0
09/09:00am 12.4 6.7 5.1 61 3.4 NNE 24 32 13 17 1018.7 1018.7 0.0
09/08:30am 12.2 7.1 5.8 65 3.0 NE 22 30 12 16 1018.9 1018.9 0.0
09/08:00am 12.0 7.0 6.3 68 2.7 NNE 22 28 12 15 1018.5 1018.5 0.0
09/07:30am 12.1 8.1 6.6 69 2.6 NE 17 24 9 13 1018.5 1018.5 0.0
09/07:00am 11.4 7.2 5.7 68 2.6 E 17 20 9 11 1018.4 1018.4 0.0
09/06:30am 11.1 6.3 5.4 68 2.6 E 20 26 11 14 1017.5 1017.5 0.0
09/06:00am 11.1 6.3 5.4 68 2.6 E 20 26 11 14 1017.5 1017.5 0.0
09/05:30am 11.2 6.3 5.3 67 2.7 ENE 20 26 11 14 1017.4 1017.4 0.0
09/05:00am 11.1 7.3 6.0 71 2.4 E 15 20 8 11 1016.9 1016.9 0.0
09/04:30am 11.2 6.4 5.7 69 2.5 E 20 28 11 15 1016.4 1016.4 0.0
09/04:00am 11.3 6.2 5.8 69 2.6 E 22 30 12 16 1016.4 1016.4 0.0
09/03:30am 11.1 7.0 6.0 71 2.4 E 17 24 9 13 1016.5 1016.5 0.0
09/03:00am 11.4 6.9 6.3 71 2.4 E 19 28 10 15 1016.5 1016.5 0.0
09/02:30am 11.7 6.6 6.2 69 2.6 E 22 30 12 16 1016.6 1016.6 0.0
09/02:00am 11.7 6.7 6.4 70 2.5 E 22 30 12 16 1017.1 1017.1 0.0
09/01:30am 11.8 7.9 7.3 74 2.2 E 17 22 9 12 1017.6 1017.6 0.0
09/01:00am 12.0 8.9 7.1 72 2.4 E 13 15 7 8 1018.0 1018.0 0.0
09/12:30am 13.1 8.7 7.3 68 2.8 ESE 20 30 11 16 1018.1 1018.1 0.0
09/12:00am 13.9 9.4 8.5 70 2.7 SE 22 28 12 15 1018.4 1018.4 0.0
 
Date/Time
CDT
Temp
°C
App
Temp
°C
Dew
Point
°C
Rel
Hum
%
Delta-T
°C
Wind Press
QNH
hPa
Press
MSL
hPa
Rain since
9am
mm
Dir  Spd
km/h
Gust
km/h
Spd
kts
Gust
kts
08/11:30pm 13.9 9.3 8.3 69 2.8 SE 22 28 12 15 1018.7 1018.7 0.0
08/11:00pm 14.0 9.4 8.2 68 2.9 SSE 22 26 12 14 1019.3 1019.3 0.0
08/10:30pm 13.9 9.8 7.7 66 3.0 SSE 19 24 10 13 1019.5 1019.5 0.0
08/10:00pm 13.8 9.7 8.0 68 2.9 SE 19 22 10 12 1019.3 1019.3 0.0
08/09:30pm 13.9 9.4 7.0 63 3.3 SSE 20 26 11 14 1019.0 1019.0 0.0
08/09:00pm 13.8 9.2 6.7 62 3.4 SSE 20 24 11 13 1019.0 1019.0 0.0
08/08:30pm 13.9 8.6 6.7 62 3.5 SSE 24 28 13 15 1018.5 1018.5 0.0
08/08:00pm 14.2 8.3 7.7 65 3.2 SSE 28 33 15 18 1017.9 1017.9 0.0
08/07:30pm 14.5 8.7 8.0 65 3.2 SSE 28 35 15 19 1017.7 1017.7 0.0
08/07:00pm 15.1 8.9 7.9 62 3.6 SSE 30 37 16 20 1017.4 1017.4 0.0
08/06:30pm 14.9 8.1 6.7 58 4.0 SSE 32 37 17 20 1017.1 1017.1 0.0
08/06:00pm 15.8 9.2 7.8 59 4.0 SSE 32 39 17 21 1017.1 1017.1 0.0
08/05:30pm 15.3 8.5 6.8 57 4.1 SSE 32 41 17 22 1017.4 1017.4 0.0
08/05:00pm 16.3 10.0 7.5 56 4.4 S 30 39 16 21 1017.6 1017.6 0.0
08/04:30pm 16.6 10.5 6.7 52 4.9 S 28 35 15 19 1018.4 1018.4 0.0
08/04:00pm 17.8 12.6 8.9 56 4.6 S 26 33 14 18 1018.6 1018.6 0.0
08/03:30pm 18.1 13.4 9.2 56 4.6 S 24 30 13 16 1018.9 1018.9 0.0
08/03:00pm 17.4 12.5 8.3 55 4.6 S 24 30 13 16 1019.0 1019.0 0.0
08/02:30pm 17.3 11.6 8.4 56 4.5 SSE 28 37 15 20 1018.9 1018.9 0.0
08/02:00pm 17.4 12.5 8.5 56 4.6 S 24 32 13 17 1019.0 1019.0 0.0
08/01:30pm 16.2 11.7 8.4 60 4.0 S 22 28 12 15 1019.1 1019.1 0.0
08/01:00pm 16.6 12.2 7.3 54 4.6 SSW 20 28 11 15 1019.2 1019.2 0.0
08/12:30pm 16.9 11.5 6.4 50 5.1 S 24 30 13 16 1019.4 1019.4 0.0
08/12:00pm 15.6 9.2 6.9 56 4.3 S 30 35 16 19 1019.4 1019.4 0.0
08/11:30am 17.7 11.2 6.6 48 5.5 S 30 35 16 19 1019.4 1019.4 0.0
08/11:00am 16.2 10.2 7.2 55 4.5 S 28 35 15 19 1019.5 1019.5 0.0
08/10:30am 15.0 8.7 7.3 60 3.8 SSW 30 33 16 18 1019.5 1019.5 0.0
08/10:00am 15.4 9.2 6.2 54 4.4 S 28 32 15 17 1019.5 1019.5 0.0
08/09:30am 16.0 9.8 6.2 52 4.7 S 28 37 15 20 1019.4 1019.4 0.0
08/09:00am 16.0 9.5 6.7 54 4.5 S 30 39 16 21 1019.3 1019.3 0.0
08/08:30am 15.8 9.9 7.3 57 4.2 SSW 28 35 15 19 1018.9 1018.9 0.0
08/08:00am 14.6 9.0 7.2 61 3.6 S 26 32 14 17 1018.5 1018.5 0.0
08/07:30am 13.9 8.5 6.3 60 3.6 SSW 24 32 13 17 1018.2 1018.2 0.0
08/07:00am 14.0 8.2 6.1 59 3.8 S 26 30 14 16 1018.0 1018.0 0.0
08/06:30am 13.8 7.0 5.2 56 4.0 S 30 35 16 19 1017.7 1017.7 0.0
08/06:00am 13.7 6.7 6.1 60 3.6 S 32 41 17 22 1017.3 1017.3 0.0
08/05:30am 13.5 7.3 6.1 61 3.5 SSW 28 35 15 19 1017.0 1017.0 0.0
08/05:00am 13.6 6.6 6.2 61 3.5 S 32 37 17 20 1016.6 1016.6 0.0
08/04:30am 13.7 6.8 6.3 61 3.5 S 32 41 17 22 1016.5 1016.5 0.0
08/04:00am 13.7 7.7 7.2 65 3.2 S 28 35 15 19 1016.4 1016.4 0.0
08/03:30am 13.7 6.7 5.8 59 3.7 S 32 37 17 20 1016.5 1016.5 0.0
08/03:00am 13.4 6.2 5.1 57 3.9 SSW 32 41 17 22 1016.5 1016.5 0.0
08/02:30am 13.9 7.7 6.3 60 3.6 S 28 37 15 20 1016.4 1016.4 0.0
08/02:00am 13.8 6.6 4.9 55 4.1 S 32 41 17 22 1016.7 1016.7 0.0
08/01:30am 13.7 5.5 4.6 54 4.2 S 37 44 20 24 1016.6 1016.6 0.0
08/01:00am 13.9 5.4 5.3 56 4.0 S 39 46 21 25 1016.8 1016.8 0.0
08/12:30am 13.9 6.4 6.3 60 3.6 SSW 35 44 19 24 1016.9 1016.9 0.0
08/12:00am 13.9 5.8 5.3 56 4.0 S 37 43 20 23 1017.1 1017.1 0.0
 
Date/Time
CDT
Temp
°C
App
Temp
°C
Dew
Point
°C
Rel
Hum
%
Delta-T
°C
Wind Press
QNH
hPa
Press
MSL
hPa
Rain since
9am
mm
Dir  Spd
km/h
Gust
km/h
Spd
kts
Gust
kts
07/11:30pm 14.1 5.8 6.0 58 3.9 S 39 48 21 26 1017.0 1017.0 0.0
07/11:00pm 14.2 6.4 6.8 61 3.6 S 37 44 20 24 1016.7 1016.7 0.0
07/10:30pm 14.1 6.2 6.0 58 3.9 S 37 44 20 24 1016.6 1016.6 0.0
07/10:00pm 14.2 5.1 6.1 58 3.9 SSW 43 52 23 28 1016.5 1016.5 0.0
07/09:30pm 14.3 6.1 6.4 59 3.8 SSW 39 50 21 27 1016.3 1016.3 0.0
07/09:00pm 14.1 5.3 5.5 56 4.0 SSW 41 48 22 26 1015.9 1015.9 0.0
07/08:30pm 14.3 4.9 5.4 55 4.2 SSW 44 54 24 29 1015.3 1015.3 0.0
07/08:00pm 14.7 6.4 7.7 63 3.5 SSW 41 48 22 26 1015.2 1015.2 0.0
07/07:30pm 14.8 6.0 5.6 54 4.4 SSW 41 52 22 28 1014.9 1014.9 0.0
07/07:00pm 14.9 6.1 7.2 60 3.8 SSW 43 52 23 28 1014.6 1014.6 0.0
07/06:30pm 15.6 6.4 8.1 61 3.8 SSW 46 56 25 30 1014.0 1014.0 0.0
07/06:00pm 15.5 6.8 9.8 69 3.0 SSW 46 57 25 31 1013.2 1013.2 0.0
07/05:30pm 16.1 7.6 10.6 70 2.9 SSW 46 57 25 31 1012.9 1012.9 0.0
07/05:00pm 15.9 8.0 10.7 71 2.8 SSW 43 56 23 30 1012.9 1012.9 0.0
07/04:30pm 16.9 8.2 11.4 70 3.0 SSW 48 59 26 32 1012.8 1012.8 0.0
07/04:00pm 16.4 8.5 11.3 72 2.7 SSW 44 54 24 29 1012.2 1012.1 0.0
07/03:30pm 18.4 11.5 11.7 65 3.7 SSW 39 48 21 26 1012.3 1012.2 0.0
07/03:00pm 17.0 8.4 11.5 70 3.0 SSW 48 61 26 33 1012.1 1012.0 0.0
07/02:43pm 18.2 10.9 10.1 59 4.3 SW 39 57 21 31 1011.9 1011.8 0.0
07/02:30pm 19.2 12.4 9.4 53 5.2 SW 35 46 19 25 1011.8 1011.7 0.0
07/02:00pm 19.0 12.0 8.6 51 5.4 SW 35 43 19 23 1011.6 1011.5 0.0
07/01:30pm 19.4 13.2 9.9 54 5.1 SW 33 41 18 22 1011.8 1011.7 0.0
07/01:00pm 19.0 12.9 10.3 57 4.7 SW 33 41 18 22 1011.6 1011.5 0.0
07/12:30pm 19.0 12.8 9.2 53 5.2 SW 32 44 17 24 1011.5 1011.4 0.0
07/12:00pm 18.2 11.2 8.5 53 5.0 SW 35 44 19 24 1011.4 1011.3 0.0
07/11:30am 18.5 11.6 9.0 54 5.0 SSW 35 44 19 24 1011.3 1011.2 0.0
07/11:00am 18.5 12.0 8.2 51 5.3 SW 32 39 17 21 1011.3 1011.2 0.0
07/10:30am 17.9 11.1 7.6 51 5.2 SW 33 41 18 22 1011.0 1010.9 0.0
07/10:00am 16.3 10.1 9.9 66 3.4 SSW 33 41 18 22 1010.8 1010.7 0.0
07/09:30am 17.6 11.3 9.0 57 4.5 SSW 32 41 17 22 1010.5 1010.4 0.0

Other formats

Comma delimited format used in spreadsheet applications
http://www.bom.gov.au/fwo/IDS60801/IDS60801.94677.axf

JavaScript Object Notation format (JSON) in row-major order
http://www.bom.gov.au/fwo/IDS60801/IDS60801.94677.json

Data quality

Most of these data are generated automatically and are frequently updated. Quality checks on data are not normally performed. It is possible for incorrect values to appear. Refer to information at About Latest Weather Observations and please check the disclaimer before using these data.